Time;durP1;ratioP1;P1;durP2;ratioP2;P2;SDS_P1;SDS_P2;PMS_P1;PMS_P2;Temp;Humidity;BMP_temperature;BMP_pressure;BME280_temperature;BME280_humidity;BME280_pressure;Samples;Min_cycle;Max_cycle;Signal;HPM_P1;HPM_P2
2022/05/25 00:00:22;;;;;;;1.80;1.02;;;17.00;99.90;;;;;;4975692;28;20118;-89
2022/05/25 00:02:48;;;;;;;3.83;1.10;;;17.10;99.90;;;;;;4952989;28;20122;-89
2022/05/25 00:05:15;;;;;;;3.80;1.08;;;17.00;99.90;;;;;;4956388;28;20041;-88
2022/05/25 00:07:41;;;;;;;1.35;1.08;;;17.00;99.90;;;;;;4984232;28;20026;-88
2022/05/25 00:10:07;;;;;;;2.85;1.00;;;17.00;99.90;;;;;;4979232;28;20103;-88
2022/05/25 00:12:33;;;;;;;3.03;1.13;;;17.00;99.90;;;;;;4958695;28;20090;-89
2022/05/25 00:14:59;;;;;;;2.17;1.10;;;17.10;99.90;;;;;;4972777;28;20023;-89
2022/05/25 00:17:24;;;;;;;2.08;0.93;;;17.00;99.90;;;;;;4977337;28;20101;-88
2022/05/25 00:19:59;;;;;;;2.00;1.10;;;17.00;99.90;;;;;;4975442;28;20023;-89
2022/05/25 00:22:49;;;;;;;2.80;1.10;;;16.90;99.90;;;;;;4979127;28;20035;-88
2022/05/25 00:25:25;;;;;;;3.58;1.13;;;16.80;99.90;;;;;;4982793;28;20038;-89
2022/05/25 00:27:51;;;;;;;1.48;1.00;;;16.80;99.90;;;;;;4985199;28;20063;-88
2022/05/25 00:30:17;;;;;;;2.97;1.10;;;16.90;99.90;;;;;;4979903;28;20038;-88
2022/05/25 00:32:43;;;;;;;2.35;1.00;;;16.90;99.90;;;;;;4968594;28;20031;-88
2022/05/25 00:35:13;;;;;;;3.13;1.38;;;16.70;99.90;;;;;;4980428;28;20474;-89
2022/05/25 00:37:39;;;;;;;1.52;0.93;;;16.70;99.90;;;;;;4977588;28;20579;-88
2022/05/25 00:40:07;;;;;;;2.58;1.20;;;16.60;99.90;;;;;;4978872;28;20114;-88
2022/05/25 00:42:36;;;;;;;2.10;1.00;;;16.60;99.90;;;;;;4969334;28;20499;-89
2022/05/25 00:45:03;;;;;;;2.50;1.00;;;16.60;99.90;;;;;;4958706;28;20030;-88
2022/05/25 00:47:30;;;;;;;3.42;1.25;;;16.50;99.90;;;;;;4974053;28;20031;-88
2022/05/25 00:49:56;;;;;;;2.40;1.20;;;16.50;99.90;;;;;;4979877;28;20027;-89
2022/05/25 00:52:22;;;;;;;2.90;1.17;;;16.50;99.90;;;;;;4978353;28;20470;-88
2022/05/25 00:54:55;;;;;;;1.38;0.95;;;16.50;99.90;;;;;;4977738;28;20061;-89
2022/05/25 00:57:32;;;;;;;2.10;1.13;;;16.30;99.90;;;;;;4978980;28;20679;-88
2022/05/25 01:00:02;;;;;;;1.42;0.88;;;16.30;99.90;;;;;;4989794;28;20035;-89
2022/05/25 01:02:29;;;;;;;4.68;0.90;;;16.40;99.90;;;;;;4958252;28;20035;-89
2022/05/25 01:04:54;;;;;;;3.38;1.00;;;16.50;99.90;;;;;;4974533;28;20515;-88
2022/05/25 01:07:32;;;;;;;2.58;1.02;;;16.60;99.90;;;;;;4978318;28;20138;-88
2022/05/25 01:10:16;;;;;;;2.90;1.10;;;16.40;99.90;;;;;;4978374;28;20027;-89
2022/05/25 01:13:06;;;;;;;2.28;0.90;;;16.30;99.90;;;;;;4978323;28;20376;-89
2022/05/25 01:16:01;;;;;;;3.15;0.90;;;16.40;99.90;;;;;;4978181;28;20032;-88
2022/05/25 01:18:44;;;;;;;1.13;0.90;;;16.30;99.90;;;;;;4977203;28;20026;-88
2022/05/25 01:21:14;;;;;;;3.28;1.00;;;16.30;99.90;;;;;;4958047;28;20022;-88
2022/05/25 01:24:14;;;;;;;2.42;1.13;;;16.20;99.90;;;;;;4958560;28;20023;-89
2022/05/25 01:26:58;;;;;;;1.63;0.90;;;16.20;99.90;;;;;;4947204;28;20062;-89
2022/05/25 01:30:03;;;;;;;4.80;1.20;;;16.00;99.90;;;;;;4987875;28;20084;-89
2022/05/25 01:32:43;;;;;;;1.20;1.10;;;15.90;99.90;;;;;;4980431;28;20034;-88
2022/05/25 01:35:42;;;;;;;1.92;1.00;;;16.00;99.90;;;;;;4987337;28;20034;-89
2022/05/25 01:38:39;;;;;;;1.92;0.98;;;16.00;99.90;;;;;;4987416;28;20057;-88
2022/05/25 01:41:42;;;;;;;3.08;1.30;;;16.00;99.90;;;;;;4962314;28;20031;-88
2022/05/25 01:44:15;;;;;;;2.17;1.02;;;16.10;99.90;;;;;;4986891;28;20474;-88
2022/05/25 01:46:49;;;;;;;2.05;1.10;;;16.10;99.90;;;;;;4969733;28;20299;-88
2022/05/25 01:49:20;;;;;;;1.67;0.90;;;16.30;99.90;;;;;;4977890;28;20028;-88
2022/05/25 01:52:01;;;;;;;2.22;1.00;;;16.00;99.90;;;;;;4977567;28;20023;-88
2022/05/25 01:54:31;;;;;;;1.38;1.02;;;16.00;99.90;;;;;;4960123;28;20470;-88
2022/05/25 01:57:03;;;;;;;1.35;1.00;;;16.00;99.90;;;;;;4974793;28;20027;-88
2022/05/25 01:59:28;;;;;;;5.18;1.35;;;15.90;99.90;;;;;;4957587;28;20037;-88
2022/05/25 02:04:47;;;;;;;3.63;1.20;;;15.90;99.90;;;;;;4978478;28;20038;-88
2022/05/25 02:07:43;;;;;;;4.00;1.15;;;15.80;99.90;;;;;;4977191;28;20062;-89
2022/05/25 02:10:36;;;;;;;2.38;1.10;;;15.90;99.90;;;;;;4977332;28;20035;-88
2022/05/25 02:13:11;;;;;;;2.33;1.45;;;15.90;99.90;;;;;;4977471;28;20031;-88
2022/05/25 02:16:11;;;;;;;2.85;1.00;;;15.80;99.90;;;;;;4973960;28;20038;-88
2022/05/25 02:18:42;;;;;;;2.58;1.10;;;15.80;99.90;;;;;;4967993;28;20023;-88
2022/05/25 02:21:27;;;;;;;1.98;1.00;;;15.70;99.90;;;;;;4976418;28;20023;-89
2022/05/25 02:24:17;;;;;;;1.92;1.00;;;15.80;99.90;;;;;;4961028;28;20038;-88
2022/05/25 02:26:53;;;;;;;3.13;1.10;;;15.70;99.90;;;;;;4957834;28;20565;-89
2022/05/25 02:29:49;;;;;;;3.92;1.08;;;15.60;99.90;;;;;;4976438;28;20054;-89
2022/05/25 02:32:24;;;;;;;1.58;1.13;;;15.40;99.90;;;;;;4969769;28;20129;-89
2022/05/25 02:34:52;;;;;;;1.60;1.00;;;15.50;99.90;;;;;;4973207;28;20037;-89
2022/05/25 02:37:22;;;;;;;3.05;1.20;;;15.60;99.90;;;;;;4976731;28;20051;-89
2022/05/25 02:39:51;;;;;;;1.75;1.10;;;15.50;99.90;;;;;;4974435;28;20035;-89
2022/05/25 02:42:17;;;;;;;3.72;0.93;;;15.50;99.90;;;;;;4976895;28;20023;-88
2022/05/25 02:44:43;;;;;;;1.35;0.88;;;15.60;99.90;;;;;;4955398;28;20024;-89
2022/05/25 02:47:09;;;;;;;1.17;0.80;;;15.50;99.90;;;;;;4972645;28;20039;-88
2022/05/25 02:49:36;;;;;;;1.90;1.10;;;15.50;99.90;;;;;;4976398;28;20027;-88
2022/05/25 02:52:02;;;;;;;1.70;0.90;;;15.40;99.90;;;;;;4957831;28;20468;-87
2022/05/25 02:54:30;;;;;;;3.78;0.90;;;15.50;99.90;;;;;;4976069;28;20516;-88
2022/05/25 02:56:56;;;;;;;2.38;0.80;;;15.50;99.90;;;;;;4974458;28;20029;-88
2022/05/25 02:59:22;;;;;;;2.30;0.80;;;15.30;99.90;;;;;;4974327;28;20035;-89
2022/05/25 03:01:47;;;;;;;1.33;0.85;;;15.30;99.90;;;;;;4969335;28;20059;-88
2022/05/25 03:04:13;;;;;;;1.20;0.80;;;15.40;99.90;;;;;;4970878;28;20145;-88
2022/05/25 03:06:39;;;;;;;2.05;0.80;;;15.40;99.90;;;;;;4970630;28;20089;-89
2022/05/25 03:09:05;;;;;;;3.40;1.00;;;15.40;99.90;;;;;;4974309;28;20053;-87
2022/05/25 03:11:31;;;;;;;1.90;0.90;;;15.40;99.90;;;;;;4973532;28;20113;-88
2022/05/25 03:13:56;;;;;;;2.67;0.95;;;15.40;99.90;;;;;;4978603;28;20031;-88
2022/05/25 03:16:22;;;;;;;1.27;0.80;;;15.30;99.90;;;;;;4970649;28;20074;-88
2022/05/25 03:18:50;;;;;;;2.17;0.90;;;15.40;99.90;;;;;;4976036;28;20022;-88
2022/05/25 03:21:18;;;;;;;2.17;0.90;;;15.10;99.90;;;;;;4975966;28;20026;-88
2022/05/25 03:23:44;;;;;;;1.23;0.90;;;15.00;99.90;;;;;;4970528;28;20031;-89
2022/05/25 03:26:10;;;;;;;1.73;1.00;;;14.90;99.90;;;;;;4960323;28;20038;-88
2022/05/25 03:28:36;;;;;;;1.25;0.90;;;15.00;99.90;;;;;;4974799;28;20442;-88
2022/05/25 03:31:02;;;;;;;1.20;0.82;;;14.90;99.90;;;;;;4952457;28;20040;-88
2022/05/25 03:33:28;;;;;;;1.80;0.88;;;14.90;99.90;;;;;;4959194;28;20077;-88
2022/05/25 03:35:53;;;;;;;1.75;1.00;;;15.00;99.90;;;;;;4969293;28;20038;-89
2022/05/25 03:38:19;;;;;;;2.25;1.40;;;14.90;99.90;;;;;;4975655;28;20019;-88
2022/05/25 03:40:45;;;;;;;1.88;1.00;;;14.90;99.90;;;;;;4977023;28;20114;-88
2022/05/25 03:43:14;;;;;;;2.25;1.00;;;14.90;99.90;;;;;;4975597;28;20122;-88
2022/05/25 03:45:40;;;;;;;2.65;1.05;;;14.90;99.90;;;;;;4971432;28;20034;-88
2022/05/25 03:48:07;;;;;;;2.72;1.00;;;14.90;99.90;;;;;;4957639;28;20026;-88
2022/05/25 03:50:38;;;;;;;1.42;0.98;;;14.80;99.90;;;;;;4959164;28;20027;-87
2022/05/25 03:53:06;;;;;;;2.33;1.50;;;14.80;99.90;;;;;;4978231;28;20038;-89
2022/05/25 03:55:32;;;;;;;3.03;1.10;;;14.90;99.90;;;;;;4980910;28;20402;-88
2022/05/25 03:57:58;;;;;;;2.30;1.02;;;14.80;99.90;;;;;;4964809;28;20031;-89
2022/05/25 04:00:24;;;;;;;3.13;1.10;;;14.70;99.90;;;;;;4976823;28;20142;-89
2022/05/25 04:02:49;;;;;;;1.73;1.10;;;14.70;99.90;;;;;;4977047;28;20472;-88
2022/05/25 04:05:15;;;;;;;3.13;1.30;;;14.60;99.90;;;;;;4964909;28;20403;-89
2022/05/25 04:07:43;;;;;;;4.22;1.30;;;14.60;99.90;;;;;;4982768;28;20030;-89
2022/05/25 04:10:13;;;;;;;4.50;1.65;;;14.80;99.90;;;;;;4963711;28;20122;-88
2022/05/25 04:12:40;;;;;;;4.00;1.27;;;14.30;99.90;;;;;;4964950;28;20051;-88
2022/05/25 04:15:07;;;;;;;2.78;1.20;;;14.50;99.90;;;;;;4959912;28;20106;-88
2022/05/25 04:17:33;;;;;;;2.70;1.25;;;14.50;99.90;;;;;;4976016;28;20051;-89
2022/05/25 04:19:59;;;;;;;2.15;1.00;;;14.60;99.90;;;;;;4983978;28;20022;-88
2022/05/25 04:22:24;;;;;;;1.80;1.08;;;14.90;99.90;;;;;;4980791;28;20023;-88
2022/05/25 04:24:51;;;;;;;3.33;1.30;;;14.60;99.90;;;;;;4972273;28;20031;-88
2022/05/25 04:27:18;;;;;;;3.17;1.23;;;14.60;99.90;;;;;;4981919;28;20030;-89
2022/05/25 04:29:44;;;;;;;1.45;1.00;;;14.50;99.90;;;;;;4977671;28;20041;-88
2022/05/25 04:32:10;;;;;;;3.90;1.33;;;14.40;99.90;;;;;;4978300;28;20426;-88
2022/05/25 04:34:36;;;;;;;10.93;1.58;;;14.30;99.90;;;;;;4964459;28;20402;-89
2022/05/25 04:39:46;;;;;;;2.72;1.48;;;14.60;99.90;;;;;;4981752;28;20030;-88
2022/05/25 04:42:12;;;;;;;3.55;1.30;;;14.70;99.90;;;;;;4975613;28;20030;-88
2022/05/25 04:44:37;;;;;;;1.95;1.08;;;14.70;99.90;;;;;;4973954;28;20507;-89
2022/05/25 04:47:07;;;;;;;2.88;1.20;;;14.60;99.90;;;;;;4977214;28;20069;-88
2022/05/25 04:49:33;;;;;;;4.40;1.30;;;14.70;99.90;;;;;;4965749;28;20034;-89
2022/05/25 04:51:59;;;;;;;3.05;1.20;;;14.80;99.90;;;;;;4963130;28;20114;-88
2022/05/25 04:54:24;;;;;;;4.47;1.40;;;14.90;99.90;;;;;;4981569;28;20570;-88
2022/05/25 04:59:34;;;;;;;2.30;1.00;;;15.20;99.90;;;;;;4977664;28;20138;-88
2022/05/25 05:01:59;;;;;;;1.65;1.10;;;15.00;99.90;;;;;;4982437;28;20450;-88
2022/05/25 05:04:28;;;;;;;3.30;1.48;;;15.10;99.90;;;;;;4964447;28;20023;-88
2022/05/25 05:06:53;;;;;;;3.15;1.20;;;15.10;99.90;;;;;;4960928;28;20598;-88
2022/05/25 05:09:19;;;;;;;1.98;1.20;;;15.30;99.90;;;;;;4978431;28;20023;-88
2022/05/25 05:11:46;;;;;;;3.33;1.30;;;14.90;99.90;;;;;;4973317;28;20061;-88
2022/05/25 05:14:14;;;;;;;3.92;1.35;;;14.90;99.90;;;;;;4962496;28;20135;-89
2022/05/25 05:16:40;;;;;;;3.95;1.20;;;14.90;99.90;;;;;;4984881;28;20043;-89
2022/05/25 05:19:06;;;;;;;2.30;1.33;;;15.00;99.90;;;;;;4969353;28;20168;-88
2022/05/25 05:21:32;;;;;;;2.63;1.38;;;15.10;99.90;;;;;;4986955;28;20176;-89
2022/05/25 05:23:57;;;;;;;2.30;1.27;;;15.10;99.90;;;;;;4958771;28;20035;-88
2022/05/25 05:26:23;;;;;;;3.25;1.08;;;15.20;99.90;;;;;;4976784;28;20479;-88
2022/05/25 05:28:53;;;;;;;6.18;1.20;;;15.40;99.90;;;;;;4960381;28;20027;-88
2022/05/25 05:31:19;;;;;;;5.00;1.35;;;15.10;99.90;;;;;;4981769;28;20053;-88
2022/05/25 05:33:45;;;;;;;5.30;1.20;;;15.10;99.90;;;;;;4984629;28;20026;-88
2022/05/25 05:36:18;;;;;;;2.00;1.20;;;15.00;99.90;;;;;;4972961;28;20026;-89
2022/05/25 05:38:57;;;;;;;3.95;1.20;;;15.10;99.90;;;;;;4957850;28;20094;-88
2022/05/25 05:41:26;;;;;;;4.07;1.52;;;15.10;99.90;;;;;;4959126;28;20035;-89
2022/05/25 05:43:52;;;;;;;3.58;1.50;;;14.90;99.90;;;;;;4975900;28;20438;-88
2022/05/25 05:46:18;;;;;;;4.15;1.30;;;15.00;99.90;;;;;;4975518;28;20047;-88
2022/05/25 05:48:45;;;;;;;2.88;1.30;;;15.10;99.90;;;;;;4971147;28;20019;-89
2022/05/25 05:51:11;;;;;;;2.78;1.25;;;15.00;99.90;;;;;;4971959;28;20030;-88
2022/05/25 05:53:39;;;;;;;6.50;1.73;;;15.10;99.90;;;;;;4989234;28;20077;-88
2022/05/25 05:56:05;;;;;;;6.85;1.63;;;15.10;99.90;;;;;;4979227;28;20504;-88
2022/05/25 05:58:30;;;;;;;1.95;1.40;;;15.10;99.90;;;;;;4960339;28;20111;-88
2022/05/25 06:00:56;;;;;;;2.65;1.30;;;15.10;99.90;;;;;;4955635;28;20172;-88
2022/05/25 06:03:21;;;;;;;3.00;1.40;;;15.20;99.90;;;;;;4970381;28;20034;-88
2022/05/25 06:05:47;;;;;;;2.17;1.13;;;15.20;99.90;;;;;;4974767;28;20046;-88
2022/05/25 06:08:17;;;;;;;2.65;1.00;;;15.20;99.90;;;;;;4961027;28;20514;-88
2022/05/25 06:10:43;;;;;;;3.38;1.30;;;15.20;99.90;;;;;;4976651;28;20027;-88
2022/05/25 06:13:09;;;;;;;2.05;1.20;;;15.40;99.90;;;;;;4977472;28;20034;-88
2022/05/25 06:21:04;;;;;;;2.72;1.40;;;15.40;99.90;;;;;;4972056;28;20033;-89
2022/05/25 06:23:30;;;;;;;1.50;1.00;;;15.60;99.90;;;;;;4972880;28;20114;-88
2022/05/25 06:25:55;;;;;;;2.83;1.10;;;15.70;99.90;;;;;;4974688;28;20049;-88
2022/05/25 06:28:21;;;;;;;2.30;1.20;;;15.80;99.90;;;;;;4961662;28;20023;-88
2022/05/25 06:30:47;;;;;;;1.45;1.20;;;15.80;99.90;;;;;;4976604;28;20081;-89
2022/05/25 06:33:12;;;;;;;2.85;1.17;;;15.70;99.90;;;;;;4976471;28;20026;-88
2022/05/25 06:35:39;;;;;;;1.15;1.05;;;15.70;99.90;;;;;;4972396;28;22546;-88
2022/05/25 06:38:04;;;;;;;2.80;1.08;;;15.80;99.90;;;;;;4972845;28;20043;-88
2022/05/25 06:40:31;;;;;;;3.97;1.67;;;15.90;99.90;;;;;;4976073;28;20097;-89
2022/05/25 06:42:57;;;;;;;2.15;1.33;;;16.00;99.90;;;;;;4976357;28;20027;-89
2022/05/25 06:45:22;;;;;;;4.55;1.20;;;16.00;99.90;;;;;;4978409;28;20041;-92
2022/05/25 06:47:48;;;;;;;1.88;1.00;;;16.10;99.90;;;;;;4955891;28;20090;-88
2022/05/25 06:50:14;;;;;;;3.50;1.20;;;16.30;99.90;;;;;;4973281;28;20487;-88
2022/05/25 06:52:39;;;;;;;2.80;1.30;;;16.40;99.90;;;;;;4970598;28;20030;-89
2022/05/25 06:55:05;;;;;;;1.73;1.17;;;16.40;99.90;;;;;;4976449;28;20022;-89
2022/05/25 06:57:32;;;;;;;1.80;1.13;;;16.50;99.90;;;;;;4959842;28;20078;-89
2022/05/25 06:59:57;;;;;;;3.50;1.30;;;16.50;99.90;;;;;;4960355;28;20027;-89
2022/05/25 07:02:24;;;;;;;1.85;1.25;;;16.40;99.90;;;;;;4975823;28;20025;-89
2022/05/25 07:04:51;;;;;;;1.77;1.30;;;16.50;99.90;;;;;;4975400;28;20031;-88
2022/05/25 07:07:18;;;;;;;4.65;1.10;;;16.60;99.90;;;;;;4975395;28;20042;-89
2022/05/25 07:09:43;;;;;;;2.75;1.45;;;16.70;99.90;;;;;;4974358;28;20018;-88
2022/05/25 07:12:09;;;;;;;2.13;1.33;;;17.00;99.90;;;;;;4975228;28;20569;-89
2022/05/25 07:14:36;;;;;;;3.60;1.50;;;16.90;99.90;;;;;;4956356;28;20035;-89
2022/05/25 07:17:03;;;;;;;1.50;1.00;;;16.90;99.90;;;;;;4978804;28;20053;-88
2022/05/25 07:19:29;;;;;;;2.83;1.35;;;16.90;99.90;;;;;;4976108;28;20041;-89
2022/05/25 07:21:55;;;;;;;1.83;1.10;;;16.90;99.90;;;;;;4973001;28;20090;-89
2022/05/25 07:24:21;;;;;;;1.17;1.02;;;17.00;99.90;;;;;;4967943;28;20073;-89
2022/05/25 07:26:47;;;;;;;2.97;1.40;;;17.10;99.90;;;;;;4954348;28;20031;-89
2022/05/25 07:29:12;;;;;;;2.92;1.30;;;17.10;99.90;;;;;;4960792;28;20495;-89
2022/05/25 07:31:50;;;;;;;2.22;1.10;;;17.20;99.90;;;;;;4957837;28;20075;-88
2022/05/25 07:34:28;;;;;;;1.67;1.10;;;17.20;99.90;;;;;;4976859;28;20154;-89
2022/05/25 07:37:04;;;;;;;4.00;1.10;;;17.10;99.90;;;;;;4961431;28;20114;-89
2022/05/25 07:39:40;;;;;;;2.85;1.48;;;17.20;99.90;;;;;;4958382;28;20038;-89
2022/05/25 07:42:06;;;;;;;5.15;1.38;;;17.40;99.90;;;;;;4974013;28;20031;-90
2022/05/25 07:44:50;;;;;;;1.92;1.05;;;17.40;99.90;;;;;;4980161;28;20023;-89
2022/05/25 07:47:15;;;;;;;3.28;1.10;;;17.50;99.90;;;;;;4955060;28;20043;-89
2022/05/25 07:49:41;;;;;;;2.70;1.42;;;17.40;99.90;;;;;;4957843;28;20133;-89
2022/05/25 07:52:08;;;;;;;1.95;1.33;;;17.50;99.90;;;;;;4964356;28;20381;-89
2022/05/25 07:54:33;;;;;;;1.70;1.20;;;17.60;99.90;;;;;;4976183;28;20058;-90
2022/05/25 07:56:59;;;;;;;2.00;1.40;;;17.80;99.90;;;;;;4956942;28;20054;-89
2022/05/25 07:59:25;;;;;;;2.95;1.23;;;17.70;99.90;;;;;;4975311;28;20026;-89
2022/05/25 08:07:34;;;;;;;1.88;1.25;;;17.90;99.90;;;;;;4976777;28;20045;-89
2022/05/25 08:10:10;;;;;;;3.92;1.20;;;18.00;99.90;;;;;;4975491;28;20023;-90
2022/05/25 08:12:38;;;;;;;4.43;1.30;;;18.10;99.90;;;;;;4975401;28;20454;-90
2022/05/25 08:15:06;;;;;;;2.42;1.00;;;18.10;99.90;;;;;;4957363;28;20023;-90
2022/05/25 08:17:32;;;;;;;2.55;1.17;;;18.20;99.90;;;;;;4969512;28;20134;-90
2022/05/25 08:19:57;;;;;;;1.60;1.10;;;18.30;99.90;;;;;;4977132;28;20166;-90
2022/05/25 08:22:24;;;;;;;3.10;1.25;;;18.30;99.90;;;;;;4974816;28;20023;-90
2022/05/25 08:24:50;;;;;;;2.05;1.08;;;18.40;99.90;;;;;;4975372;28;20035;-89
2022/05/25 08:27:15;;;;;;;3.08;1.10;;;18.60;99.90;;;;;;4971098;28;20045;-90
2022/05/25 08:29:41;;;;;;;3.95;1.15;;;18.50;99.90;;;;;;4967787;28;20033;-90
2022/05/25 08:32:07;;;;;;;3.05;1.25;;;18.60;99.90;;;;;;4978088;28;20383;-89
2022/05/25 08:34:33;;;;;;;1.10;1.00;;;18.50;99.90;;;;;;4975861;28;20023;-90
2022/05/25 08:36:59;;;;;;;1.67;1.15;;;18.70;99.90;;;;;;4978195;28;20031;-90
2022/05/25 08:39:24;;;;;;;3.63;1.30;;;18.70;99.90;;;;;;4962575;28;20030;-90
2022/05/25 08:41:53;;;;;;;4.90;1.60;;;18.90;99.90;;;;;;4957947;28;20027;-90
2022/05/25 08:44:20;;;;;;;1.33;1.00;;;19.00;99.90;;;;;;4979038;28;20035;-90
2022/05/25 08:46:46;;;;;;;2.45;1.25;;;19.00;99.90;;;;;;4980905;28;20113;-90
2022/05/25 08:49:16;;;;;;;3.45;1.20;;;19.10;99.90;;;;;;4982626;28;20019;-89
2022/05/25 08:51:48;;;;;;;2.08;1.00;;;19.30;99.90;;;;;;4986877;28;20189;-90
2022/05/25 08:54:15;;;;;;;2.13;1.00;;;19.30;99.90;;;;;;4962085;28;20057;-91
2022/05/25 08:56:55;;;;;;;1.55;0.98;;;19.30;99.90;;;;;;4958318;28;20031;-90
2022/05/25 08:59:39;;;;;;;1.15;0.95;;;19.30;99.90;;;;;;4965765;28;20065;-90
2022/05/25 09:02:23;;;;;;;3.00;1.00;;;19.40;99.90;;;;;;4975687;28;20085;-90
2022/05/25 09:04:55;;;;;;;2.72;1.38;;;19.40;99.90;;;;;;4980694;28;20052;-90
2022/05/25 09:07:50;;;;;;;3.15;1.10;;;19.60;99.90;;;;;;4960306;28;20049;-90
2022/05/25 09:10:18;;;;;;;1.40;1.02;;;19.40;99.90;;;;;;4962315;28;20462;-90
2022/05/25 09:12:49;;;;;;;3.22;0.95;;;19.30;99.90;;;;;;4977384;28;20027;-90
2022/05/25 09:15:26;;;;;;;2.40;1.00;;;19.30;99.90;;;;;;4971852;28;20015;-90
2022/05/25 09:18:02;;;;;;;1.33;0.80;;;19.50;99.90;;;;;;4986628;28;20442;-90
2022/05/25 09:20:36;;;;;;;2.17;1.00;;;19.60;99.90;;;;;;4975384;28;20483;-90
2022/05/25 09:23:02;;;;;;;1.65;1.00;;;19.90;99.90;;;;;;4955561;29;20217;-90
2022/05/25 09:25:29;;;;;;;1.02;0.90;;;20.00;99.90;;;;;;4978218;28;20384;-90
2022/05/25 09:28:07;;;;;;;2.45;1.00;;;20.00;99.90;;;;;;4964310;28;20089;-90
2022/05/25 09:30:37;;;;;;;2.42;0.80;;;20.30;99.90;;;;;;4974631;28;20492;-90
2022/05/25 09:33:11;;;;;;;0.60;0.60;;;20.20;99.90;;;;;;4957378;28;20062;-90
2022/05/25 09:35:42;;;;;;;1.77;0.73;;;20.10;99.90;;;;;;4972680;28;20075;-90
2022/05/25 09:38:35;;;;;;;4.22;0.88;;;20.20;99.90;;;;;;4955450;28;20026;-91
2022/05/25 09:41:06;;;;;;;1.88;0.63;;;20.20;99.90;;;;;;4958139;28;20495;-90
2022/05/25 09:43:32;;;;;;;2.45;0.82;;;20.30;99.90;;;;;;4957673;28;20027;-90
2022/05/25 09:46:05;;;;;;;2.05;0.70;;;20.40;99.90;;;;;;4957136;28;20035;-90
2022/05/25 09:48:33;;;;;;;2.30;0.50;;;20.40;99.90;;;;;;4956112;28;20063;-90
2022/05/25 09:51:02;;;;;;;1.60;0.95;;;20.40;99.90;;;;;;4982620;28;20076;-90
2022/05/25 09:53:37;;;;;;;1.52;0.60;;;20.40;99.90;;;;;;4983979;28;20034;-90
2022/05/25 09:56:17;;;;;;;3.58;0.85;;;20.40;99.90;;;;;;4976427;28;20031;-90
2022/05/25 09:58:53;;;;;;;1.48;0.90;;;20.50;99.90;;;;;;4970014;28;20022;-90
2022/05/25 10:01:19;;;;;;;0.98;0.65;;;20.60;99.90;;;;;;4955213;28;20066;-90
2022/05/25 10:03:46;;;;;;;0.93;0.70;;;20.70;99.90;;;;;;4974667;28;20042;-90
2022/05/25 10:06:38;;;;;;;2.10;0.80;;;20.70;99.90;;;;;;4969648;28;20543;-90
2022/05/25 10:09:10;;;;;;;2.78;0.80;;;20.70;99.90;;;;;;4961685;28;20514;-90
2022/05/25 10:11:54;;;;;;;3.72;0.88;;;20.60;99.90;;;;;;4973512;28;20031;-90
2022/05/25 10:14:39;;;;;;;1.90;0.80;;;20.90;99.90;;;;;;4972214;28;20034;-90
2022/05/25 10:17:13;;;;;;;3.05;0.80;;;20.80;99.90;;;;;;4975021;28;20055;-90
2022/05/25 10:19:51;;;;;;;2.42;1.00;;;20.70;99.90;;;;;;4974806;28;20376;-89
2022/05/25 10:22:26;;;;;;;1.08;0.77;;;20.80;99.90;;;;;;4959595;28;20031;-90
2022/05/25 10:25:04;;;;;;;2.75;0.70;;;21.00;99.90;;;;;;4960086;28;20085;-90
2022/05/25 10:27:41;;;;;;;2.20;0.80;;;20.90;99.90;;;;;;4979329;28;20049;-90
2022/05/25 10:39:13;;;;;;;1.30;0.70;;;21.10;99.90;;;;;;4959756;28;20077;-90
2022/05/25 10:41:39;;;;;;;1.40;0.70;;;21.40;99.90;;;;;;4971716;28;20045;-90
2022/05/25 10:44:18;;;;;;;2.88;0.75;;;21.30;99.90;;;;;;4962301;28;20488;-90
2022/05/25 10:46:57;;;;;;;1.70;0.80;;;21.30;99.90;;;;;;4972599;28;20522;-90
2022/05/25 10:49:42;;;;;;;2.08;0.90;;;21.50;99.90;;;;;;4971584;28;20142;-90
2022/05/25 10:52:35;;;;;;;1.77;0.80;;;21.30;99.90;;;;;;4976222;28;20475;-90
2022/05/25 10:55:01;;;;;;;1.58;0.90;;;21.40;99.90;;;;;;4968717;28;20035;-91
2022/05/25 10:57:29;;;;;;;2.25;0.70;;;21.60;99.90;;;;;;4968181;28;20026;-90
2022/05/25 11:00:18;;;;;;;1.88;0.77;;;21.70;99.90;;;;;;4956632;28;20567;-90
2022/05/25 11:02:53;;;;;;;1.88;0.70;;;21.80;99.90;;;;;;4958267;28;20123;-90
2022/05/25 11:05:24;;;;;;;0.55;0.50;;;21.80;99.90;;;;;;4989465;28;20022;-90
2022/05/25 11:07:58;;;;;;;1.08;0.63;;;22.00;99.90;;;;;;4976950;28;20038;-90
2022/05/25 11:10:58;;;;;;;1.13;0.80;;;22.30;99.90;;;;;;4960071;28;20117;-90
2022/05/25 11:14:01;;;;;;;2.13;0.77;;;22.50;99.90;;;;;;4977198;28;20023;-90
2022/05/25 11:16:33;;;;;;;1.60;0.85;;;22.90;99.90;;;;;;4959544;28;20113;-89
2022/05/25 11:19:01;;;;;;;2.97;1.15;;;22.70;99.90;;;;;;4977748;28;20037;-90
2022/05/25 11:22:09;;;;;;;1.65;0.70;;;22.20;99.90;;;;;;4976253;28;20026;-90
2022/05/25 11:24:46;;;;;;;2.55;0.75;;;22.70;99.90;;;;;;4977298;28;20642;-91
2022/05/25 11:27:39;;;;;;;4.43;0.80;;;22.70;99.90;;;;;;4975262;28;20501;-90
2022/05/25 11:30:08;;;;;;;1.67;0.60;;;22.70;99.90;;;;;;4961200;28;20395;-90
2022/05/25 11:32:52;;;;;;;2.70;1.05;;;22.80;99.90;;;;;;4972790;28;20028;-90
2022/05/25 11:35:55;;;;;;;1.10;0.90;;;22.70;99.90;;;;;;4986795;28;20113;-90
2022/05/25 11:38:39;;;;;;;1.42;0.70;;;23.10;99.90;;;;;;4986689;28;20105;-90
2022/05/25 11:41:37;;;;;;;2.15;0.73;;;23.30;99.90;;;;;;4978726;28;20101;-90
2022/05/25 11:44:30;;;;;;;1.38;1.02;;;23.80;99.90;;;;;;4877357;29;20045;-90
2022/05/25 11:47:10;;;;;;;1.17;0.80;;;25.90;99.90;;;;;;4873953;29;20113;-90
2022/05/25 11:49:48;;;;;;;1.98;1.05;;;28.00;99.90;;;;;;4872097;29;20035;-90
2022/05/25 11:52:22;;;;;;;1.13;0.77;;;29.30;99.90;;;;;;4873808;29;20605;-90
2022/05/25 11:55:31;;;;;;;2.35;0.75;;;30.80;99.90;;;;;;4873964;29;20097;-90
2022/05/25 11:58:07;;;;;;;2.10;0.85;;;31.40;99.90;;;;;;4817098;29;20042;-90
2022/05/25 12:00:43;;;;;;;1.25;0.70;;;31.60;99.90;;;;;;4822301;29;20046;-90
2022/05/25 12:03:27;;;;;;;1.50;0.73;;;31.70;99.90;;;;;;4821957;29;20038;-90
2022/05/25 12:06:16;;;;;;;1.35;0.70;;;32.40;99.90;;;;;;4809414;29;20126;-91
2022/05/25 12:08:53;;;;;;;1.60;1.00;;;33.00;99.90;;;;;;4823292;29;20056;-91
2022/05/25 12:11:51;;;;;;;0.82;0.82;;;33.50;99.90;;;;;;4824170;29;20412;-91
2022/05/25 12:14:36;;;;;;;2.75;0.70;;;31.20;99.90;;;;;;4753855;30;20044;-91
2022/05/25 12:17:14;;;;;;;4.40;0.77;;;32.60;99.90;;;;;;4753367;29;20056;-91
2022/05/25 12:19:41;;;;;;;2.28;0.90;;;32.70;99.90;;;;;;4750030;29;20051;-91
2022/05/25 12:22:15;;;;;;;1.80;0.80;;;34.10;99.90;;;;;;4826284;29;20548;-91
2022/05/25 12:24:44;;;;;;;1.23;0.70;;;32.90;99.90;;;;;;4829903;29;20038;-91
2022/05/25 12:27:15;;;;;;;3.50;0.80;;;33.30;99.90;;;;;;4828858;29;20127;-91
2022/05/25 12:29:46;;;;;;;1.33;0.75;;;33.50;99.90;;;;;;4841614;29;20504;-91
2022/05/25 12:32:13;;;;;;;1.25;0.75;;;31.60;99.90;;;;;;4824675;29;20030;-90
2022/05/25 12:34:46;;;;;;;1.52;0.80;;;30.50;99.90;;;;;;4860131;29;20270;-91
2022/05/25 12:37:17;;;;;;;1.08;0.70;;;28.60;99.90;;;;;;4899728;29;20100;-91
2022/05/25 12:39:42;;;;;;;1.33;0.70;;;31.20;99.90;;;;;;4899206;29;20035;-91
2022/05/25 12:42:23;;;;;;;2.45;0.80;;;29.00;99.90;;;;;;4899535;29;20416;-91
2022/05/25 12:51:02;;;;;;;1.55;0.90;;;29.90;99.90;;;;;;4965114;28;20037;-91
2022/05/25 12:53:55;;;;;;;1.92;0.90;;;29.40;99.90;;;;;;4877405;29;20040;-90
2022/05/25 12:56:23;;;;;;;1.67;0.95;;;30.20;99.90;;;;;;4863567;29;20033;-92
2022/05/25 12:58:50;;;;;;;3.17;0.85;;;29.20;99.90;;;;;;4878172;29;20486;-91
2022/05/25 13:01:28;;;;;;;1.23;0.80;;;29.70;99.90;;;;;;4877015;29;20522;-91
2022/05/25 13:03:56;;;;;;;0.73;0.60;;;29.90;99.90;;;;;;4878856;29;20033;-91
2022/05/25 13:06:40;;;;;;;3.83;0.93;;;29.80;99.90;;;;;;4877516;29;20552;-91
2022/05/25 13:09:11;;;;;;;2.75;0.80;;;28.70;99.90;;;;;;4876746;29;20514;-92
2022/05/25 13:11:44;;;;;;;2.05;0.70;;;29.40;99.90;;;;;;4876942;29;20123;-91
2022/05/25 13:14:25;;;;;;;1.58;0.95;;;29.60;99.90;;;;;;4879320;29;20068;-91
2022/05/25 13:16:58;;;;;;;2.92;1.05;;;29.00;99.90;;;;;;4877535;29;20407;-90
2022/05/25 13:19:32;;;;;;;2.55;0.70;;;28.70;99.90;;;;;;4878115;29;20029;-91
2022/05/25 13:22:05;;;;;;;1.00;0.73;;;29.80;99.90;;;;;;4877208;29;20084;-91
2022/05/25 13:24:51;;;;;;;4.60;0.70;;;29.60;99.90;;;;;;4875595;29;20029;-91
2022/05/25 13:27:42;;;;;;;1.08;0.75;;;29.30;99.90;;;;;;4922890;28;20078;-91
2022/05/25 13:30:27;;;;;;;1.60;0.80;;;29.40;99.90;;;;;;4977949;28;20414;-91
2022/05/25 13:33:02;;;;;;;1.35;0.80;;;30.20;99.90;;;;;;4962215;28;20027;-91
2022/05/25 13:36:03;;;;;;;1.98;0.80;;;29.50;99.90;;;;;;4959087;28;20034;-91
2022/05/25 13:38:46;;;;;;;1.90;0.90;;;29.60;99.90;;;;;;4971853;28;20039;-91
2022/05/25 13:41:32;;;;;;;0.98;0.73;;;29.40;99.90;;;;;;4988215;28;20533;-89
2022/05/25 13:43:58;;;;;;;0.95;0.85;;;29.70;99.90;;;;;;4977745;28;20039;-89
2022/05/25 13:46:42;;;;;;;1.30;0.70;;;29.30;99.90;;;;;;4978391;28;20488;-90
2022/05/25 13:49:16;;;;;;;2.95;1.02;;;29.70;99.90;;;;;;4978701;28;20050;-89